createdAt,value
2024-03-08T00:02:31.675Z,97.90
2024-03-08T00:06:34.144Z,98.30
2024-03-08T00:10:36.235Z,98.10
2024-03-08T00:14:38.678Z,98.00
2024-03-08T00:18:40.750Z,98.00
2024-03-08T00:22:42.800Z,98.00
2024-03-08T00:26:44.893Z,97.80
2024-03-08T00:30:47.799Z,97.80
2024-03-08T00:34:49.694Z,97.90
2024-03-08T00:38:51.736Z,98.20
2024-03-08T00:42:54.464Z,98.00
2024-03-08T00:46:56.392Z,97.90
2024-03-08T00:50:58.738Z,98.00
2024-03-08T00:55:00.841Z,97.90
2024-03-08T00:59:03.695Z,98.20
2024-03-08T01:03:06.714Z,98.20
2024-03-08T01:07:08.703Z,98.20
2024-03-08T01:11:10.910Z,98.00
2024-03-08T01:15:13.031Z,98.00
2024-03-08T01:19:15.224Z,98.00
2024-03-08T01:23:17.185Z,98.40
2024-03-08T01:27:19.170Z,98.50
2024-03-08T01:31:21.140Z,98.60
2024-03-08T01:35:23.609Z,98.50
2024-03-08T01:39:25.581Z,98.30
2024-03-08T01:43:29.622Z,98.80
2024-03-08T01:47:34.056Z,98.70
2024-03-08T01:51:36.053Z,99.20
2024-03-08T01:55:39.035Z,98.90
2024-03-08T01:59:42.829Z,98.90
2024-03-08T02:03:46.337Z,98.70
2024-03-08T02:07:48.397Z,98.30
2024-03-08T02:11:50.309Z,98.50
2024-03-08T02:16:01.945Z,98.40
2024-03-08T02:20:06.129Z,98.40
2024-03-08T02:24:08.252Z,98.60
2024-03-08T02:28:12.183Z,98.60
2024-03-08T02:32:14.093Z,99.10
2024-03-08T02:36:17.602Z,98.60
2024-03-08T02:40:19.657Z,98.70
2024-03-08T02:44:22.832Z,99.10
2024-03-08T02:48:25.001Z,99.00
2024-03-08T02:52:27.036Z,99.10
2024-03-08T02:56:28.935Z,98.90
2024-03-08T03:00:35.349Z,98.90
2024-03-08T03:04:37.440Z,98.80
2024-03-08T03:08:39.986Z,99.10
2024-03-08T03:12:41.963Z,98.80
2024-03-08T03:16:45.171Z,98.50
2024-03-08T03:20:47.092Z,98.90
2024-03-08T03:24:48.991Z,98.80
2024-03-08T03:28:51.011Z,98.60
2024-03-08T03:32:53.427Z,98.70
2024-03-08T03:36:56.825Z,99.00
2024-03-08T03:41:05.513Z,98.80
2024-03-08T03:45:08.278Z,98.80
2024-03-08T03:49:10.316Z,98.80
2024-03-08T03:53:12.256Z,98.70
2024-03-08T03:57:14.224Z,98.90
2024-03-08T04:01:16.105Z,99.10
2024-03-08T04:05:18.087Z,98.80
2024-03-08T04:09:20.478Z,99.10
2024-03-08T04:13:22.463Z,99.10
2024-03-08T04:17:25.513Z,99.30
2024-03-08T04:21:28.241Z,99.30
2024-03-08T04:25:30.213Z,99.10
2024-03-08T04:29:35.675Z,99.50
2024-03-08T04:33:37.775Z,99.30
2024-03-08T04:37:40.282Z,99.80
2024-03-08T04:41:44.595Z,99.80
2024-03-08T04:45:46.807Z,99.60
2024-03-08T04:49:48.689Z,99.60
2024-03-08T04:53:50.962Z,99.80
2024-03-08T04:57:52.911Z,99.70
2024-03-08T05:01:54.894Z,99.60
2024-03-08T05:05:57.508Z,99.30
2024-03-08T05:09:59.773Z,99.30
2024-03-08T05:14:01.741Z,99.30
2024-03-08T05:18:04.642Z,99.50
2024-03-08T05:22:06.586Z,99.40
2024-03-08T05:26:10.037Z,99.20
2024-03-08T05:30:16.317Z,99.30
2024-03-08T05:34:18.702Z,99.80
2024-03-08T05:38:21.442Z,99.50
2024-03-08T05:42:23.458Z,99.80
2024-03-08T05:46:25.451Z,99.30
2024-03-08T05:50:28.503Z,99.50
2024-03-08T05:54:30.407Z,99.90
2024-03-08T05:58:32.672Z,99.90
2024-03-08T06:02:34.731Z,99.90
2024-03-08T06:06:39.190Z,99.90
2024-03-08T06:10:41.430Z,99.70
2024-03-08T06:14:44.482Z,99.90
2024-03-08T06:18:47.920Z,99.90
2024-03-08T06:22:50.562Z,99.90
2024-03-08T06:26:52.465Z,99.90
2024-03-08T06:30:55.348Z,99.90
2024-03-08T06:34:57.324Z,99.90
2024-03-08T06:38:59.251Z,99.90
2024-03-08T06:43:01.202Z,99.90
2024-03-08T06:47:03.168Z,99.90
2024-03-08T06:51:06.224Z,99.90
2024-03-08T06:55:08.562Z,99.90
2024-03-08T06:59:13.926Z,99.80
2024-03-08T07:03:18.542Z,99.70
2024-03-08T07:07:23.341Z,99.90
2024-03-08T07:11:25.260Z,99.90
2024-03-08T07:15:27.291Z,99.90
2024-03-08T07:19:29.693Z,99.90
2024-03-08T07:23:50.058Z,99.90
2024-03-08T07:27:53.189Z,99.80
2024-03-08T07:32:13.238Z,99.60
2024-03-08T07:36:15.992Z,99.90
2024-03-08T07:40:19.384Z,99.90
2024-03-08T07:44:21.217Z,99.90
2024-03-08T07:48:23.209Z,99.90
2024-03-08T07:52:25.127Z,99.80
2024-03-08T07:56:27.157Z,99.30
2024-03-08T08:00:29.015Z,99.60
2024-03-08T08:04:31.092Z,99.90
2024-03-08T08:08:33.481Z,99.90
2024-03-08T08:12:37.957Z,99.90
2024-03-08T08:16:42.484Z,99.90
2024-03-08T08:20:44.420Z,99.90
2024-03-08T08:24:46.571Z,99.90
2024-03-08T08:28:48.629Z,99.70
2024-03-08T08:32:50.900Z,99.80
2024-03-08T08:36:54.161Z,99.90
2024-03-08T08:40:59.036Z,99.60
2024-03-08T08:45:11.381Z,99.70
2024-03-08T08:49:21.672Z,99.90
2024-03-08T08:53:24.224Z,99.80
2024-03-08T08:57:28.419Z,99.90
2024-03-08T09:01:30.316Z,99.90
2024-03-08T09:05:33.169Z,99.80
2024-03-08T09:09:36.133Z,99.50
2024-03-08T09:13:39.013Z,99.30
2024-03-08T09:17:42.882Z,99.60
2024-03-08T09:21:45.139Z,99.70
2024-03-08T09:25:48.194Z,99.00
2024-03-08T09:29:50.557Z,99.20
2024-03-08T09:33:52.885Z,98.20
2024-03-08T09:37:55.503Z,98.80
2024-03-08T09:41:57.445Z,99.50
2024-03-08T09:45:59.747Z,99.60
2024-03-08T09:50:02.668Z,99.10
2024-03-08T09:54:11.992Z,99.60
2024-03-08T09:58:28.702Z,99.30
2024-03-08T10:02:31.049Z,98.80
2024-03-08T10:06:33.905Z,99.10
2024-03-08T10:10:36.983Z,99.00
2024-03-08T10:14:41.490Z,99.30
2024-03-08T10:18:43.416Z,99.30
2024-03-08T10:22:54.337Z,99.00
2024-03-08T10:27:05.737Z,99.10
2024-03-08T10:31:07.801Z,98.20
2024-03-08T10:35:09.971Z,98.40
2024-03-08T10:39:25.193Z,98.70
2024-03-08T10:43:32.148Z,98.20
2024-03-08T11:33:48.753Z,99.10
2024-03-08T11:37:52.325Z,99.00
2024-03-08T11:41:54.897Z,98.20
2024-03-08T11:46:09.876Z,97.90
2024-03-08T11:50:12.752Z,97.80
2024-03-08T11:54:14.788Z,97.80
2024-03-08T11:58:17.368Z,97.80
2024-03-08T12:02:20.597Z,98.20
2024-03-08T12:06:22.716Z,99.10
2024-03-08T12:10:26.010Z,98.70
2024-03-08T12:14:28.057Z,97.90
2024-03-08T12:18:35.768Z,97.90
2024-03-08T12:22:43.027Z,98.00
2024-03-08T12:26:45.097Z,97.60
2024-03-08T12:30:54.200Z,98.10
2024-03-08T12:34:57.680Z,99.00
2024-03-08T12:39:00.861Z,98.50
2024-03-08T12:43:04.018Z,98.00
2024-03-08T12:47:06.333Z,98.00
2024-03-08T12:51:10.057Z,98.20
2024-03-08T12:55:13.014Z,97.50
2024-03-08T12:59:15.178Z,98.00
2024-03-08T13:03:18.198Z,97.10
2024-03-08T13:07:20.217Z,97.10
2024-03-08T13:11:24.622Z,97.60
2024-03-08T13:15:26.869Z,98.20
2024-03-08T13:19:29.505Z,98.90
2024-03-08T13:23:31.763Z,98.00
2024-03-08T13:27:33.979Z,97.40
2024-03-08T13:31:37.594Z,97.50
2024-03-08T13:35:41.808Z,97.10
2024-03-08T13:39:46.527Z,97.30
2024-03-08T13:43:52.154Z,97.50
2024-03-08T13:47:58.181Z,97.70
2024-03-08T13:52:00.328Z,98.10
2024-03-08T13:56:04.966Z,98.10
2024-03-08T14:00:08.096Z,97.70
2024-03-08T14:04:17.550Z,97.30
2024-03-08T14:08:19.871Z,97.10
2024-03-08T14:12:22.679Z,96.50
2024-03-08T14:16:25.591Z,97.20
2024-03-08T14:20:48.638Z,96.90
2024-03-08T14:24:53.096Z,96.70
2024-03-08T14:28:55.764Z,96.80
2024-03-08T14:32:57.967Z,96.90
2024-03-08T14:37:01.238Z,96.60
2024-03-08T14:41:05.643Z,96.40
2024-03-08T14:45:08.705Z,96.60
2024-03-08T14:49:10.712Z,96.50
2024-03-08T14:53:17.731Z,96.30
2024-03-08T14:57:19.903Z,96.00
2024-03-08T15:01:25.749Z,96.00
2024-03-08T15:05:28.332Z,95.60
2024-03-08T15:09:31.578Z,95.50
2024-03-08T15:13:41.716Z,95.80
2024-03-08T15:17:43.784Z,95.40
2024-03-08T15:21:49.392Z,95.20
2024-03-08T15:25:51.524Z,95.00
2024-03-08T15:29:56.856Z,95.20
2024-03-08T15:34:02.397Z,94.80
2024-03-08T15:38:05.444Z,95.00
2024-03-08T15:42:07.593Z,94.10
2024-03-08T15:46:12.837Z,94.40
2024-03-08T15:50:15.560Z,94.10
2024-03-08T15:54:17.614Z,93.60
2024-03-08T15:58:19.796Z,93.50
2024-03-08T16:02:24.979Z,93.60
2024-03-08T16:06:27.010Z,93.50
2024-03-08T16:10:31.966Z,93.70
2024-03-08T16:14:39.117Z,93.90
2024-03-08T16:18:42.400Z,93.60
2024-03-08T16:22:48.279Z,93.60
2024-03-08T16:26:53.076Z,93.80
2024-03-08T16:30:56.826Z,93.80
2024-03-08T16:34:59.738Z,93.70
2024-03-08T16:39:03.185Z,93.30
2024-03-08T16:43:05.659Z,93.20
2024-03-08T16:47:07.763Z,93.00
2024-03-08T16:51:10.352Z,93.40
2024-03-08T16:55:16.818Z,93.10
2024-03-08T16:59:18.968Z,93.30
2024-03-08T17:03:22.030Z,93.40
2024-03-08T17:07:24.361Z,93.50
2024-03-08T17:11:26.656Z,93.50
2024-03-08T17:15:30.201Z,93.40
2024-03-08T17:19:32.440Z,93.60
2024-03-08T17:23:35.419Z,93.20
2024-03-08T17:27:37.782Z,93.30
2024-03-08T17:31:40.061Z,93.30
2024-03-08T17:35:42.598Z,93.30
2024-03-08T17:39:44.482Z,93.60
2024-03-08T17:43:47.654Z,93.50
2024-03-08T17:47:51.519Z,93.80
2024-03-08T17:51:53.977Z,93.80
2024-03-08T17:55:58.011Z,93.70
2024-03-08T18:00:00.463Z,93.70
2024-03-08T18:04:03.393Z,93.70
2024-03-08T18:08:06.301Z,93.50
2024-03-08T18:12:09.850Z,93.30
2024-03-08T18:16:12.854Z,93.00
2024-03-08T18:20:15.870Z,92.90
2024-03-08T18:24:19.422Z,93.10
2024-03-08T18:28:22.593Z,92.80
2024-03-08T18:32:24.851Z,92.80
2024-03-08T18:36:31.581Z,92.90
2024-03-08T18:40:33.898Z,92.60
2024-03-08T18:44:36.097Z,93.10
2024-03-08T18:48:39.289Z,93.10
2024-03-08T18:52:42.037Z,92.80
2024-03-08T18:56:44.653Z,93.00
2024-03-08T19:00:50.427Z,93.00
2024-03-08T19:04:56.447Z,92.80
2024-03-08T19:08:59.644Z,92.80
2024-03-08T19:13:03.266Z,92.50
2024-03-08T19:17:11.880Z,92.70
2024-03-08T19:21:14.201Z,92.70
2024-03-08T19:25:19.101Z,92.70
2024-03-08T19:29:25.910Z,93.30
2024-03-08T19:33:31.233Z,92.80
2024-03-08T19:37:34.763Z,92.90
2024-03-08T19:41:38.429Z,93.20
2024-03-08T19:45:41.278Z,93.40
2024-03-08T19:49:43.949Z,93.10
2024-03-08T19:53:46.052Z,93.30
2024-03-08T19:57:51.765Z,93.30
2024-03-08T20:01:54.457Z,93.30
2024-03-08T20:05:57.297Z,93.50
2024-03-08T20:09:59.656Z,93.50
2024-03-08T20:14:01.849Z,93.40
2024-03-08T20:18:05.180Z,93.50
2024-03-08T20:22:07.543Z,93.70
2024-03-08T20:26:12.443Z,93.70
2024-03-08T20:30:22.527Z,93.70
2024-03-08T20:34:26.488Z,93.60
2024-03-08T20:38:28.572Z,93.70
2024-03-08T20:42:31.339Z,93.70
2024-03-08T20:46:33.361Z,93.80
2024-03-08T20:50:39.489Z,93.90
2024-03-08T20:54:41.644Z,93.70
2024-03-08T20:58:44.903Z,93.80
2024-03-08T21:02:47.797Z,94.00
2024-03-08T21:06:49.965Z,94.00
2024-03-08T21:10:55.218Z,94.20
2024-03-08T21:14:57.687Z,94.40
2024-03-08T21:19:00.720Z,94.40
2024-03-08T21:23:05.887Z,94.50
2024-03-08T21:27:09.338Z,94.60
2024-03-08T21:31:11.766Z,94.80
2024-03-08T21:35:14.034Z,94.60
2024-03-08T21:39:17.270Z,94.60
2024-03-08T21:43:20.105Z,94.70
2024-03-08T21:47:22.740Z,94.80
2024-03-08T21:51:24.735Z,94.70
2024-03-08T21:55:27.119Z,94.80
2024-03-08T21:59:29.727Z,95.00
2024-03-08T22:03:35.067Z,94.90
2024-03-08T22:07:38.278Z,95.10
2024-03-08T22:11:40.430Z,94.80
2024-03-08T22:15:46.059Z,94.70
2024-03-08T22:19:48.128Z,94.80
2024-03-08T22:23:50.282Z,94.70
2024-03-08T22:27:53.537Z,94.80
2024-03-08T22:31:55.815Z,94.90
2024-03-08T22:35:59.040Z,95.00
2024-03-08T22:40:02.350Z,95.00
2024-03-08T22:44:04.961Z,95.10
2024-03-08T22:48:08.151Z,95.00
2024-03-08T22:52:11.952Z,94.90
2024-03-08T22:56:16.411Z,95.10
2024-03-08T23:00:19.468Z,95.30
2024-03-08T23:04:21.591Z,95.20
2024-03-08T23:08:24.729Z,95.10
2024-03-08T23:12:28.690Z,95.00
2024-03-08T23:16:31.382Z,95.20
2024-03-08T23:20:34.295Z,95.70
2024-03-08T23:24:37.584Z,95.90
2024-03-08T23:28:42.251Z,95.80
2024-03-08T23:32:47.393Z,95.70
2024-03-08T23:36:51.163Z,95.60
2024-03-08T23:40:53.418Z,95.10
2024-03-08T23:44:55.589Z,95.30
2024-03-08T23:48:57.643Z,95.60
2024-03-08T23:53:01.853Z,95.70
2024-03-08T23:57:05.968Z,95.60
